createdAt,value
2022-10-11T00:02:20.316Z,3.90
2022-10-11T00:04:47.733Z,3.90
2022-10-11T00:07:15.115Z,5.13
2022-10-11T00:09:42.581Z,4.40
2022-10-11T00:12:12.457Z,2.78
2022-10-11T00:14:39.937Z,4.25
2022-10-11T00:17:08.197Z,3.55
2022-10-11T00:19:35.518Z,4.18
2022-10-11T00:22:02.835Z,6.75
2022-10-11T00:24:30.112Z,4.38
2022-10-11T00:26:57.395Z,3.60
2022-10-11T00:29:24.719Z,7.00
2022-10-11T00:31:52.009Z,7.25
2022-10-11T00:34:19.312Z,4.43
2022-10-11T00:36:46.807Z,4.55
2022-10-11T00:39:14.606Z,4.85
2022-10-11T00:41:42.507Z,4.15
2022-10-11T00:44:18.839Z,3.60
2022-10-11T00:46:54.983Z,4.55
2022-10-11T00:49:37.705Z,4.38
2022-10-11T00:52:14.641Z,2.65
2022-10-11T00:54:44.015Z,6.00
2022-10-11T00:57:14.327Z,3.95
2022-10-11T00:59:42.914Z,4.18
2022-10-11T01:02:13.653Z,4.07
2022-10-11T01:04:43.831Z,5.03
2022-10-11T01:07:11.714Z,5.97
2022-10-11T01:09:39.139Z,3.45
2022-10-11T01:12:11.878Z,4.88
2022-10-11T01:14:51.397Z,4.18
2022-10-11T01:17:24.402Z,4.47
2022-10-11T01:20:03.761Z,2.15
2022-10-11T01:22:49.751Z,5.60
2022-10-11T01:25:35.744Z,4.28
2022-10-11T01:28:11.272Z,5.05
2022-10-11T01:30:39.148Z,3.88
2022-10-11T01:33:12.125Z,7.80
2022-10-11T01:35:42.394Z,4.53
2022-10-11T01:38:14.386Z,5.07
2022-10-11T01:40:47.966Z,3.90
2022-10-11T01:43:16.415Z,2.55
2022-10-11T01:45:44.157Z,5.60
2022-10-11T01:48:13.111Z,3.15
2022-10-11T01:50:40.368Z,5.95
2022-10-11T01:53:23.742Z,3.45
2022-10-11T01:55:52.173Z,3.60
2022-10-11T01:58:19.394Z,5.57
2022-10-11T02:00:55.406Z,5.45
2022-10-11T02:03:22.650Z,4.15
2022-10-11T02:05:56.097Z,2.60
2022-10-11T02:08:23.333Z,4.15
2022-10-11T02:10:53.634Z,5.20
2022-10-11T02:13:29.282Z,6.35
2022-10-11T02:15:59.074Z,6.07
2022-10-11T02:18:32.214Z,6.95
2022-10-11T02:21:00.958Z,4.55
2022-10-11T02:23:30.711Z,3.83
2022-10-11T02:25:58.549Z,4.47
2022-10-11T02:28:30.101Z,7.07
2022-10-11T02:30:58.618Z,4.40
2022-10-11T02:33:29.075Z,4.65
2022-10-11T02:36:00.135Z,4.35
2022-10-11T02:38:30.900Z,4.93
2022-10-11T02:41:02.851Z,4.57
2022-10-11T02:43:42.386Z,4.75
2022-10-11T02:46:10.535Z,5.50
2022-10-11T02:48:38.307Z,4.72
2022-10-11T02:51:05.582Z,3.90
2022-10-11T02:53:32.907Z,4.72
2022-10-11T02:56:00.158Z,3.17
2022-10-11T02:58:27.458Z,5.60
2022-10-11T03:00:54.779Z,4.15
2022-10-11T03:03:22.039Z,5.95
2022-10-11T03:05:49.382Z,4.35
2022-10-11T03:08:17.261Z,7.15
2022-10-11T03:10:44.602Z,4.60
2022-10-11T03:13:15.971Z,3.95
2022-10-11T03:15:49.423Z,4.43
2022-10-11T03:18:20.285Z,3.83
2022-10-11T03:20:47.634Z,4.70
2022-10-11T03:23:14.937Z,3.75
2022-10-11T03:25:42.187Z,6.70
2022-10-11T03:28:09.502Z,8.63
2022-10-11T03:30:36.838Z,5.72
2022-10-11T03:33:04.382Z,4.00
2022-10-11T03:35:31.636Z,5.28
2022-10-11T03:37:58.935Z,3.67
2022-10-11T03:40:26.215Z,4.35
2022-10-11T03:42:56.349Z,5.10
2022-10-11T03:45:23.806Z,4.43
2022-10-11T03:47:51.050Z,6.55
2022-10-11T03:50:18.406Z,5.60
2022-10-11T03:52:45.662Z,8.10
2022-10-11T03:55:12.917Z,4.18
2022-10-11T03:57:40.161Z,4.90
2022-10-11T04:00:07.822Z,9.07
2022-10-11T04:02:39.072Z,6.18
2022-10-11T04:05:07.162Z,4.20
2022-10-11T04:07:34.579Z,3.92
2022-10-11T04:10:01.803Z,6.75
2022-10-11T04:12:29.077Z,5.57
2022-10-11T04:14:56.309Z,5.70
2022-10-11T04:17:23.596Z,4.18
2022-10-11T04:19:50.830Z,5.15
2022-10-11T04:22:18.213Z,3.60
2022-10-11T04:24:45.450Z,9.57
2022-10-11T04:27:12.681Z,7.70
2022-10-11T04:29:39.957Z,5.70
2022-10-11T04:32:07.326Z,6.97
2022-10-11T04:34:34.611Z,7.07
2022-10-11T04:37:01.880Z,5.70
2022-10-11T04:39:29.142Z,4.85
2022-10-11T04:41:56.409Z,6.55
2022-10-11T04:44:23.838Z,4.85
2022-10-11T04:46:51.169Z,6.63
2022-10-11T04:49:18.433Z,5.45
2022-10-11T04:51:45.689Z,6.88
2022-10-11T04:54:12.969Z,8.25
2022-10-11T04:56:40.290Z,7.32
2022-10-11T04:59:07.570Z,5.63
2022-10-11T05:01:34.946Z,4.75
2022-10-11T05:04:02.303Z,7.70
2022-10-11T05:06:29.626Z,5.82
2022-10-11T05:09:04.415Z,6.82
2022-10-11T05:11:31.666Z,7.32
2022-10-11T05:14:00.440Z,7.13
2022-10-11T05:16:27.904Z,3.95
2022-10-11T05:18:55.166Z,8.20
2022-10-11T05:21:23.837Z,8.25
2022-10-11T05:23:51.566Z,5.03
2022-10-11T05:26:19.649Z,5.70
2022-10-11T05:28:47.445Z,6.20
2022-10-11T05:31:15.191Z,7.53
2022-10-11T05:33:42.975Z,6.70
2022-10-11T05:36:10.592Z,4.22
2022-10-11T05:38:38.466Z,7.68
2022-10-11T05:41:06.447Z,9.77
2022-10-11T05:43:33.910Z,7.50
2022-10-11T05:46:01.254Z,8.07
2022-10-11T05:48:28.713Z,8.15
2022-10-11T05:51:03.093Z,10.85
2022-10-11T05:53:30.516Z,8.10
2022-10-11T05:55:58.052Z,7.13
2022-10-11T05:58:25.580Z,4.82
2022-10-11T06:00:52.922Z,4.78
2022-10-11T06:03:21.146Z,8.05
2022-10-11T06:05:49.735Z,13.23
2022-10-11T06:08:19.415Z,8.75
2022-10-11T06:10:46.662Z,8.07
2022-10-11T06:13:13.936Z,7.47
2022-10-11T06:15:41.476Z,9.55
2022-10-11T06:18:08.782Z,9.40
2022-10-11T06:20:36.261Z,9.07
2022-10-11T06:23:03.521Z,9.95
2022-10-11T06:25:30.824Z,8.02
2022-10-11T06:27:58.079Z,7.28
2022-10-11T06:30:25.338Z,5.32
2022-10-11T06:32:52.591Z,5.90
2022-10-11T06:35:19.915Z,8.50
2022-10-11T06:37:47.230Z,8.85
2022-10-11T06:40:14.462Z,11.32
2022-10-11T06:42:41.752Z,9.85
2022-10-11T06:45:09.272Z,8.93
2022-10-11T06:47:36.553Z,12.35
2022-10-11T06:50:04.880Z,11.95
2022-10-11T06:52:32.147Z,7.55
2022-10-11T06:54:59.394Z,12.00
2022-10-11T06:57:26.763Z,8.75
2022-10-11T06:59:54.022Z,7.38
2022-10-11T07:02:21.262Z,9.35
2022-10-11T07:04:48.528Z,7.05
2022-10-11T07:07:15.868Z,5.72
2022-10-11T07:09:43.078Z,10.68
2022-10-11T07:12:10.370Z,8.27
2022-10-11T07:14:37.628Z,7.50
2022-10-11T07:17:05.211Z,7.95
2022-10-11T07:19:32.450Z,9.88
2022-10-11T07:21:59.770Z,8.30
2022-10-11T07:24:27.118Z,8.73
2022-10-11T07:26:54.337Z,8.50
2022-10-11T07:29:21.734Z,7.25
2022-10-11T07:31:49.060Z,11.38
2022-10-11T07:34:16.340Z,10.85
2022-10-11T07:36:43.599Z,8.77
2022-10-11T07:39:11.082Z,18.50
2022-10-11T07:41:43.290Z,8.93
2022-10-11T07:44:13.013Z,9.45
2022-10-11T07:46:40.232Z,10.10
2022-10-11T07:49:07.501Z,8.25
2022-10-11T07:51:34.902Z,8.90
2022-10-11T07:54:07.284Z,11.80
2022-10-11T07:56:34.919Z,12.77
2022-10-11T07:59:06.410Z,9.93
2022-10-11T08:01:33.965Z,10.60
2022-10-11T08:04:01.305Z,13.00
2022-10-11T08:06:31.830Z,12.05
2022-10-11T08:09:00.218Z,14.43
2022-10-11T08:11:29.225Z,12.15
2022-10-11T08:13:56.582Z,10.80
2022-10-11T08:16:24.007Z,10.07
2022-10-11T08:18:51.520Z,11.80
2022-10-11T08:21:19.644Z,12.02
2022-10-11T08:23:46.980Z,12.57
2022-10-11T08:26:14.684Z,14.13
2022-10-11T08:28:42.012Z,10.23
2022-10-11T08:31:12.645Z,9.55
2022-10-11T08:33:40.142Z,14.80
2022-10-11T08:36:08.677Z,10.48
2022-10-11T08:38:37.273Z,10.02
2022-10-11T08:41:15.356Z,10.02
2022-10-11T08:43:48.004Z,15.80
2022-10-11T08:46:16.096Z,10.93
2022-10-11T08:48:45.766Z,12.32
2022-10-11T08:51:19.788Z,9.27
2022-10-11T08:53:49.917Z,12.38
2022-10-11T08:56:17.452Z,17.17
2022-10-11T08:58:48.210Z,12.60
2022-10-11T09:01:18.972Z,14.55
2022-10-11T09:03:47.693Z,12.48
2022-10-11T09:06:26.988Z,13.23
2022-10-11T09:09:06.316Z,16.67
2022-10-11T09:11:36.537Z,13.98
2022-10-11T09:14:03.767Z,9.93
2022-10-11T09:16:49.519Z,14.20
2022-10-11T09:19:19.742Z,12.73
2022-10-11T09:22:01.911Z,16.20
2022-10-11T09:25:01.378Z,13.10
2022-10-11T09:27:50.262Z,14.45
2022-10-11T09:30:17.320Z,18.38
2022-10-11T09:32:52.089Z,18.83
2022-10-11T09:35:23.190Z,18.05
2022-10-11T09:37:56.718Z,15.30
2022-10-11T09:40:26.966Z,16.65
2022-10-11T09:42:54.207Z,15.50
2022-10-11T09:45:22.410Z,21.10
2022-10-11T09:47:50.367Z,15.18
2022-10-11T09:50:20.499Z,19.77
2022-10-11T09:53:05.470Z,16.70
2022-10-11T09:55:45.035Z,16.27
2022-10-11T09:58:27.439Z,13.30
2022-10-11T10:01:07.634Z,13.00
2022-10-11T10:03:36.527Z,9.68
2022-10-11T10:06:22.347Z,13.60
2022-10-11T10:08:50.745Z,16.58
2022-10-11T10:11:19.275Z,12.32
2022-10-11T10:13:51.960Z,9.30
2022-10-11T10:16:37.676Z,13.77
2022-10-11T10:19:13.953Z,16.48
2022-10-11T10:21:48.741Z,13.38
2022-10-11T10:24:18.926Z,13.77
2022-10-11T10:27:04.749Z,12.50
2022-10-11T10:29:32.030Z,14.45
2022-10-11T10:32:18.969Z,11.75
2022-10-11T10:35:04.710Z,13.15
2022-10-11T10:38:07.714Z,12.55
2022-10-11T10:40:37.675Z,13.70
2022-10-11T10:43:04.989Z,12.95
2022-10-11T10:45:43.223Z,13.25
2022-10-11T10:48:10.786Z,10.88
2022-10-11T10:51:10.656Z,15.43
2022-10-11T10:53:43.142Z,10.32
2022-10-11T10:56:16.316Z,13.43
2022-10-11T10:58:52.673Z,13.05
2022-10-11T11:01:25.894Z,9.02
2022-10-11T11:04:08.302Z,12.30
2022-10-11T11:06:36.628Z,8.65
2022-10-11T11:09:19.226Z,11.25
2022-10-11T11:11:52.308Z,13.07
2022-10-11T11:14:24.434Z,12.55
2022-10-11T11:16:59.050Z,10.90
2022-10-11T11:19:26.309Z,14.25
2022-10-11T11:21:56.677Z,14.43
2022-10-11T11:24:42.426Z,7.65
2022-10-11T11:27:12.700Z,7.05
2022-10-11T11:29:55.671Z,6.10
2022-10-11T11:32:23.172Z,6.43
2022-10-11T11:35:13.690Z,9.02
2022-10-11T11:37:42.663Z,5.13
2022-10-11T11:40:20.714Z,6.75
2022-10-11T11:43:01.118Z,6.82
2022-10-11T11:45:30.270Z,8.30
2022-10-11T11:48:03.378Z,4.63
2022-10-11T11:50:34.392Z,5.72
2022-10-11T11:53:05.123Z,6.28
2022-10-11T11:55:51.998Z,5.47
2022-10-11T11:58:37.479Z,3.40
2022-10-11T12:01:17.126Z,5.88
2022-10-11T12:03:48.581Z,4.18
2022-10-11T12:06:16.099Z,6.65
2022-10-11T12:08:44.959Z,5.43
2022-10-11T12:11:41.369Z,6.13
2022-10-11T12:14:19.694Z,6.15
2022-10-11T12:17:06.664Z,6.70
2022-10-11T12:19:33.999Z,5.15
2022-10-11T12:22:21.540Z,4.13
2022-10-11T12:24:55.344Z,9.48
2022-10-11T12:27:41.216Z,6.95
2022-10-11T12:30:27.104Z,7.93
2022-10-11T12:33:04.090Z,6.55
2022-10-11T12:35:31.659Z,10.40
2022-10-11T12:38:14.554Z,6.78
2022-10-11T12:40:42.482Z,6.00
2022-10-11T12:43:24.257Z,6.07
2022-10-11T12:45:51.740Z,8.20
2022-10-11T12:48:19.009Z,5.90
2022-10-11T12:51:02.829Z,7.40
2022-10-11T12:53:50.641Z,6.55
2022-10-11T12:56:42.174Z,6.20
2022-10-11T12:59:15.336Z,6.72
2022-10-11T13:01:53.656Z,8.20
2022-10-11T13:04:23.131Z,11.63
2022-10-11T13:06:54.700Z,6.57
2022-10-11T13:09:31.143Z,8.43
2022-10-11T13:12:15.461Z,6.15
2022-10-11T13:14:44.104Z,7.65
2022-10-11T13:17:22.069Z,12.15
2022-10-11T13:19:52.576Z,14.93
2022-10-11T13:22:22.010Z,9.82
2022-10-11T13:24:49.771Z,11.18
2022-10-11T13:27:20.048Z,9.63
2022-10-11T13:29:47.596Z,15.70
2022-10-11T13:32:16.618Z,12.23
2022-10-11T13:34:46.365Z,8.60
2022-10-11T13:37:18.290Z,9.75
2022-10-11T13:39:46.586Z,14.40
2022-10-11T13:42:15.149Z,12.82
2022-10-11T13:44:43.991Z,10.23
2022-10-11T13:47:15.160Z,11.07
2022-10-11T13:52:21.528Z,10.60
2022-10-11T13:55:01.312Z,9.43
2022-10-11T13:57:34.599Z,11.23
2022-10-11T14:00:04.964Z,11.73
2022-10-11T14:02:33.508Z,12.95
2022-10-11T14:05:00.898Z,8.80
2022-10-11T14:07:28.103Z,9.93
2022-10-11T14:09:56.063Z,11.75
2022-10-11T14:12:35.591Z,11.43
2022-10-11T14:15:21.619Z,11.73
2022-10-11T14:17:49.198Z,9.65
2022-10-11T14:20:18.264Z,18.80
2022-10-11T14:22:45.523Z,12.75
2022-10-11T14:25:14.184Z,13.32
2022-10-11T14:27:42.697Z,14.75
2022-10-11T14:30:25.470Z,14.32
2022-10-11T14:32:54.677Z,11.57
2022-10-11T14:35:24.118Z,12.43
2022-10-11T14:37:51.403Z,13.55
2022-10-11T14:40:20.465Z,20.02
2022-10-11T14:42:47.694Z,9.98
2022-10-11T14:45:15.018Z,10.25
2022-10-11T14:47:43.297Z,12.40
2022-10-11T14:50:25.735Z,9.60
2022-10-11T14:52:52.978Z,11.93
2022-10-11T14:55:20.268Z,12.48
2022-10-11T14:57:47.579Z,10.85
2022-10-11T15:00:20.460Z,11.25
2022-10-11T15:02:48.000Z,12.60
2022-10-11T15:05:15.370Z,15.98
2022-10-11T15:07:42.676Z,12.52
2022-10-11T15:10:16.071Z,10.80
2022-10-11T15:12:43.305Z,14.65
2022-10-11T15:15:14.735Z,11.77
2022-10-11T15:17:45.466Z,12.82
2022-10-11T15:20:20.798Z,10.20
2022-10-11T15:22:49.461Z,15.10
2022-10-11T15:25:17.359Z,14.43
2022-10-11T15:27:44.624Z,15.45
2022-10-11T15:30:15.161Z,11.05
2022-10-11T15:32:42.444Z,8.15
2022-10-11T15:35:09.822Z,14.05
2022-10-11T15:37:37.552Z,13.88
2022-10-11T15:40:12.171Z,13.10
2022-10-11T15:42:39.551Z,8.77
2022-10-11T15:45:06.921Z,9.10
2022-10-11T15:47:34.440Z,11.13
2022-10-11T15:50:01.735Z,15.82
2022-10-11T15:52:29.008Z,11.90
2022-10-11T15:54:56.229Z,14.48
2022-10-11T15:57:23.547Z,14.25
2022-10-11T15:59:50.871Z,14.05
2022-10-11T16:02:18.084Z,15.07
2022-10-11T16:04:45.345Z,11.15
2022-10-11T16:07:12.557Z,11.68
2022-10-11T16:09:39.865Z,13.70
2022-10-11T16:12:07.166Z,11.02
2022-10-11T16:14:34.445Z,12.50
2022-10-11T16:17:03.432Z,13.55
2022-10-11T16:19:30.675Z,11.27
2022-10-11T16:21:57.931Z,8.38
2022-10-11T16:24:25.279Z,16.65
2022-10-11T16:26:52.515Z,15.40
2022-10-11T16:29:19.770Z,22.83
2022-10-11T16:31:47.033Z,10.98
2022-10-11T16:34:14.342Z,13.93
2022-10-11T16:36:42.895Z,16.23
2022-10-11T16:39:13.466Z,21.00
2022-10-11T16:41:40.824Z,17.90
2022-10-11T16:44:08.559Z,8.95
2022-10-11T16:46:35.915Z,16.42
2022-10-11T16:49:03.815Z,12.07
2022-10-11T16:51:31.071Z,26.45
2022-10-11T16:53:58.561Z,17.92
2022-10-11T16:56:25.815Z,13.88
2022-10-11T16:58:54.243Z,12.25
2022-10-11T17:01:24.008Z,10.57
2022-10-11T17:03:51.504Z,12.15
2022-10-11T17:06:19.473Z,10.68
2022-10-11T17:08:47.129Z,12.35
2022-10-11T17:11:14.640Z,14.05
2022-10-11T17:13:41.897Z,18.10
2022-10-11T17:16:09.498Z,13.02
2022-10-11T17:18:36.998Z,14.88
2022-10-11T17:21:04.762Z,8.68
2022-10-11T17:23:32.032Z,15.02
2022-10-11T17:25:59.491Z,14.20
2022-10-11T17:28:26.975Z,16.02
2022-10-11T17:30:57.564Z,15.98
2022-10-11T17:33:28.701Z,13.32
2022-10-11T17:38:27.331Z,19.65
2022-10-11T17:41:01.471Z,18.75
2022-10-11T17:43:28.910Z,16.50
2022-10-11T17:46:00.735Z,14.95
2022-10-11T17:48:28.416Z,13.43
2022-10-11T17:50:56.026Z,22.20
2022-10-11T17:53:23.369Z,14.68
2022-10-11T17:55:50.690Z,21.73
2022-10-11T17:58:18.748Z,17.73
2022-10-11T18:00:46.045Z,19.23
2022-10-11T18:03:13.421Z,19.88
2022-10-11T18:05:41.083Z,15.85
2022-10-11T18:08:09.843Z,15.32
2022-10-11T18:10:37.766Z,16.38
2022-10-11T18:13:06.861Z,15.63
2022-10-11T18:15:34.720Z,16.38
2022-10-11T18:18:04.677Z,16.75
2022-10-11T18:20:32.409Z,16.38
2022-10-11T18:22:59.893Z,23.65
2022-10-11T18:25:27.192Z,19.58
2022-10-11T18:27:54.474Z,20.73
2022-10-11T18:30:21.729Z,18.10
2022-10-11T18:32:49.019Z,22.77
2022-10-11T18:35:16.381Z,14.07
2022-10-11T18:37:43.708Z,17.23
2022-10-11T18:40:11.336Z,16.98
2022-10-11T18:42:38.583Z,17.90
2022-10-11T18:45:06.075Z,16.40
2022-10-11T18:47:33.365Z,16.35
2022-10-11T18:50:00.660Z,19.17
2022-10-11T18:52:28.021Z,17.10
2022-10-11T18:54:55.331Z,20.85
2022-10-11T18:57:24.187Z,18.92
2022-10-11T18:59:51.484Z,16.33
2022-10-11T19:02:18.844Z,22.60
2022-10-11T19:04:52.408Z,35.63
2022-10-11T19:07:20.295Z,25.02
2022-10-11T19:09:47.607Z,16.27
2022-10-11T19:12:15.939Z,14.63
2022-10-11T19:14:43.379Z,18.27
2022-10-11T19:17:12.446Z,21.40
2022-10-11T19:19:39.719Z,21.85
2022-10-11T19:22:07.049Z,16.52
2022-10-11T19:24:43.753Z,15.23
2022-10-11T19:27:11.167Z,17.75
2022-10-11T19:29:38.847Z,18.38
2022-10-11T19:32:06.401Z,16.65
2022-10-11T19:34:33.804Z,19.55
2022-10-11T19:37:01.353Z,15.10
2022-10-11T19:39:29.586Z,19.35
2022-10-11T19:41:56.908Z,11.85
2022-10-11T19:44:24.171Z,19.48
2022-10-11T19:46:52.751Z,16.90
2022-10-11T19:49:22.749Z,20.17
2022-10-11T19:51:50.165Z,18.70
2022-10-11T19:54:17.944Z,18.15
2022-10-11T19:56:45.477Z,17.08
2022-10-11T19:59:13.378Z,16.30
2022-10-11T20:01:41.452Z,15.93
2022-10-11T20:04:22.688Z,14.40
2022-10-11T20:06:58.231Z,18.58
2022-10-11T20:09:30.403Z,15.90
2022-10-11T20:11:58.308Z,19.65
2022-10-11T20:14:26.061Z,17.73
2022-10-11T20:16:53.427Z,18.60
2022-10-11T20:19:26.261Z,23.27
2022-10-11T20:21:55.194Z,15.95
2022-10-11T20:24:22.609Z,17.15
2022-10-11T20:26:49.897Z,19.50
2022-10-11T20:29:17.175Z,18.75
2022-10-11T20:31:44.456Z,15.38
2022-10-11T20:34:12.140Z,22.17
2022-10-11T20:36:39.455Z,14.70
2022-10-11T20:39:06.941Z,14.48
2022-10-11T20:41:40.037Z,13.43
2022-10-11T20:44:07.743Z,20.15
2022-10-11T20:46:36.241Z,16.83
2022-10-11T20:49:05.079Z,16.17
2022-10-11T20:51:33.056Z,16.95
2022-10-11T20:54:01.029Z,14.57
2022-10-11T20:56:29.917Z,16.25
2022-10-11T20:58:58.373Z,14.43
2022-10-11T21:01:30.375Z,13.18
2022-10-11T21:03:58.199Z,15.63
2022-10-11T21:06:25.790Z,19.13
2022-10-11T21:08:54.823Z,15.65
2022-10-11T21:11:22.066Z,15.32
2022-10-11T21:13:49.335Z,15.38
2022-10-11T21:16:17.167Z,17.25
2022-10-11T21:18:44.433Z,13.93
2022-10-11T21:21:13.028Z,18.58
2022-10-11T21:23:40.441Z,12.25
2022-10-11T21:26:08.878Z,16.33
2022-10-11T21:28:36.379Z,18.60
2022-10-11T21:31:04.710Z,14.60
2022-10-11T21:33:32.250Z,15.98
2022-10-11T21:36:00.204Z,15.57
2022-10-11T21:38:27.478Z,15.02
2022-10-11T21:40:54.798Z,10.52
2022-10-11T21:43:22.207Z,15.30
2022-10-11T21:45:49.977Z,15.63
2022-10-11T21:48:17.199Z,31.10
2022-10-11T21:50:44.452Z,12.20
2022-10-11T21:53:11.767Z,14.27
2022-10-11T21:55:39.296Z,16.00
2022-10-11T21:58:07.140Z,12.02
2022-10-11T22:00:34.430Z,14.45
2022-10-11T22:03:01.803Z,16.00
2022-10-11T22:05:29.034Z,16.35
2022-10-11T22:07:56.259Z,11.60
2022-10-11T22:10:23.695Z,15.45
2022-10-11T22:12:50.970Z,13.60
2022-10-11T22:15:18.259Z,19.48
2022-10-11T22:17:45.525Z,16.02
2022-10-11T22:20:12.766Z,13.13
2022-10-11T22:22:40.069Z,13.80
2022-10-11T22:25:07.515Z,12.82
2022-10-11T22:27:34.783Z,12.40
2022-10-11T22:30:02.044Z,11.52
2022-10-11T22:32:29.549Z,11.40
2022-10-11T22:34:56.776Z,12.38
2022-10-11T22:37:24.083Z,16.30
2022-10-11T22:39:51.314Z,8.90
2022-10-11T22:42:18.608Z,8.77
2022-10-11T22:44:45.885Z,14.20
2022-10-11T22:47:13.245Z,13.43
2022-10-11T22:49:40.474Z,11.27
2022-10-11T22:52:07.731Z,10.95
2022-10-11T22:54:34.936Z,18.80
2022-10-11T22:57:02.189Z,7.95
2022-10-11T22:59:29.508Z,13.98
2022-10-11T23:01:56.749Z,9.27
2022-10-11T23:04:23.975Z,10.35
2022-10-11T23:06:51.227Z,13.35
2022-10-11T23:09:18.503Z,14.35
2022-10-11T23:11:45.754Z,13.73
2022-10-11T23:14:13.058Z,10.40
2022-10-11T23:16:40.268Z,12.27
2022-10-11T23:19:07.474Z,9.48
2022-10-11T23:21:34.768Z,13.75
2022-10-11T23:24:02.021Z,12.23
2022-10-11T23:26:29.353Z,14.38
2022-10-11T23:28:57.397Z,14.60
2022-10-11T23:31:24.663Z,15.02
2022-10-11T23:33:51.923Z,11.30
2022-10-11T23:36:20.348Z,11.77
2022-10-11T23:38:55.403Z,12.10
2022-10-11T23:41:23.303Z,12.80
2022-10-11T23:43:50.648Z,14.23
2022-10-11T23:46:17.908Z,12.88
2022-10-11T23:48:45.257Z,12.85
2022-10-11T23:51:12.628Z,13.20
2022-10-11T23:53:39.951Z,10.57
2022-10-11T23:56:07.469Z,10.63
2022-10-11T23:58:34.938Z,14.60
